Time;durP1;ratioP1;P1;durP2;ratioP2;P2;SDS_P1;SDS_P2;PMS_P1;PMS_P2;Temp;Humidity;BMP_temperature;BMP_pressure;BME280_temperature;BME280_humidity;BME280_pressure;Samples;Min_cycle;Max_cycle;Signal;HPM_P1;HPM_P2
2022/05/28 00:02:02;;;;;;;2.40;1.30;;;19.50;52.20;;;;;;5038153;28;20459;-81
2022/05/28 00:04:32;;;;;;;7.23;1.10;;;19.50;52.30;;;;;;5037726;28;20545;-82
2022/05/28 00:07:00;;;;;;;3.33;1.70;;;19.50;52.30;;;;;;5037760;28;20471;-82
2022/05/28 00:09:28;;;;;;;3.27;1.30;;;19.50;52.30;;;;;;5037953;28;20456;-81
2022/05/28 00:11:56;;;;;;;5.80;1.80;;;19.50;52.30;;;;;;5034958;28;20491;-82
2022/05/28 00:14:24;;;;;;;4.37;1.67;;;19.50;52.40;;;;;;5037092;28;20542;-81
2022/05/28 00:16:52;;;;;;;7.63;1.73;;;19.50;52.40;;;;;;5035248;28;20468;-82
2022/05/28 00:19:22;;;;;;;3.37;1.77;;;19.40;52.40;;;;;;5035722;28;20418;-81
2022/05/28 00:21:52;;;;;;;5.37;1.60;;;19.40;52.40;;;;;;5034984;28;20541;-81
2022/05/28 00:24:19;;;;;;;3.10;1.50;;;19.40;52.50;;;;;;5035056;28;20442;-81
2022/05/28 00:26:47;;;;;;;8.30;1.33;;;19.40;52.50;;;;;;5034814;28;20456;-80
2022/05/28 00:29:15;;;;;;;12.03;2.40;;;19.40;52.50;;;;;;5029188;28;20491;-81
2022/05/28 00:31:43;;;;;;;2.20;1.50;;;19.30;52.40;;;;;;5017425;28;20559;-84
2022/05/28 00:34:11;;;;;;;5.63;1.30;;;19.30;52.50;;;;;;5043026;28;20989;-83
2022/05/28 00:36:40;;;;;;;4.30;1.33;;;19.30;52.60;;;;;;5041593;28;20447;-83
2022/05/28 00:39:10;;;;;;;6.10;1.53;;;19.30;52.70;;;;;;5042458;28;20513;-84
2022/05/28 00:41:38;;;;;;;5.83;1.73;;;19.20;52.60;;;;;;5044995;28;20853;-84
2022/05/28 00:44:06;;;;;;;7.90;1.53;;;19.20;52.70;;;;;;5044345;28;20471;-83
2022/05/28 00:46:34;;;;;;;2.17;1.43;;;19.30;52.70;;;;;;5042849;28;20471;-83
2022/05/28 00:49:04;;;;;;;3.90;1.30;;;19.20;52.70;;;;;;5030438;28;20440;-83
2022/05/28 00:51:34;;;;;;;6.47;1.50;;;19.10;52.80;;;;;;5025069;28;20468;-84
2022/05/28 00:54:04;;;;;;;5.47;1.60;;;19.10;52.90;;;;;;5023945;28;20519;-84
2022/05/28 00:56:33;;;;;;;4.73;1.53;;;19.10;52.90;;;;;;5025222;28;20503;-85
2022/05/28 00:59:01;;;;;;;4.00;1.57;;;19.10;53.00;;;;;;5017814;28;20448;-81
2022/05/28 01:01:30;;;;;;;3.53;1.53;;;19.10;53.10;;;;;;5015470;28;20491;-82
2022/05/28 01:04:04;;;;;;;3.80;1.33;;;19.10;53.10;;;;;;5015349;28;20455;-82
2022/05/28 01:06:36;;;;;;;3.13;1.60;;;19.00;53.00;;;;;;5027627;28;20453;-79
2022/05/28 01:09:07;;;;;;;4.80;1.40;;;19.00;52.90;;;;;;5034363;28;20514;-80
2022/05/28 01:11:38;;;;;;;2.80;1.10;;;19.00;52.50;;;;;;5036305;28;20488;-81
2022/05/28 01:14:09;;;;;;;3.10;1.27;;;18.90;52.20;;;;;;5043088;28;20463;-83
2022/05/28 01:16:40;;;;;;;2.93;1.27;;;18.90;51.80;;;;;;5041592;28;20509;-83
2022/05/28 01:19:20;;;;;;;2.67;1.40;;;18.90;51.30;;;;;;5046456;28;20483;-83
2022/05/28 01:21:50;;;;;;;4.10;1.43;;;18.80;50.90;;;;;;5046453;28;20505;-84
2022/05/28 01:24:21;;;;;;;4.00;1.40;;;18.80;50.50;;;;;;5044511;28;20479;-83
2022/05/28 01:26:55;;;;;;;4.47;1.30;;;18.70;50.10;;;;;;5045596;28;20546;-84
2022/05/28 01:29:24;;;;;;;4.73;1.60;;;18.70;49.90;;;;;;5044088;28;20486;-84
2022/05/28 01:31:52;;;;;;;6.97;1.50;;;18.70;49.50;;;;;;5044759;28;20530;-84
2022/05/28 01:34:20;;;;;;;3.03;1.17;;;18.60;49.10;;;;;;5044854;28;20478;-82
2022/05/28 01:36:48;;;;;;;6.63;1.80;;;18.60;49.00;;;;;;5046270;28;20474;-83
2022/05/28 01:39:17;;;;;;;1.33;1.00;;;18.50;48.70;;;;;;5050934;28;20443;-84
2022/05/28 01:41:45;;;;;;;7.33;1.53;;;18.50;48.60;;;;;;5036751;28;20540;-85
2022/05/28 01:44:15;;;;;;;5.53;1.57;;;18.50;48.40;;;;;;5046153;28;20466;-85
2022/05/28 01:46:43;;;;;;;3.73;1.10;;;18.40;48.30;;;;;;5044490;28;20475;-84
2022/05/28 01:49:13;;;;;;;6.40;1.30;;;18.40;48.20;;;;;;5044514;28;20458;-83
2022/05/28 01:51:55;;;;;;;2.77;1.27;;;18.30;48.00;;;;;;5042915;28;20470;-84
2022/05/28 01:54:24;;;;;;;1.80;1.20;;;18.30;47.70;;;;;;5043962;28;20522;-84
2022/05/28 01:56:53;;;;;;;2.40;1.00;;;18.30;47.60;;;;;;5042949;28;20587;-84
2022/05/28 01:59:24;;;;;;;3.80;1.23;;;18.30;47.50;;;;;;5024122;28;20468;-83
2022/05/28 02:01:52;;;;;;;2.43;1.30;;;18.20;47.40;;;;;;5024646;28;20457;-84
2022/05/28 02:04:20;;;;;;;3.13;0.97;;;18.20;47.20;;;;;;5024983;28;20447;-85
2022/05/28 02:06:48;;;;;;;3.37;1.20;;;18.20;47.00;;;;;;5025560;28;20444;-84
2022/05/28 02:09:17;;;;;;;2.90;1.10;;;18.20;47.00;;;;;;5024415;28;20454;-84
2022/05/28 02:12:01;;;;;;;2.13;1.00;;;18.10;46.90;;;;;;5021677;28;20540;-84
2022/05/28 02:14:49;;;;;;;1.83;1.10;;;18.10;47.00;;;;;;5041069;28;20550;-85
2022/05/28 02:17:21;;;;;;;3.10;1.03;;;18.10;46.80;;;;;;5043754;28;20401;-83
2022/05/28 02:19:55;;;;;;;1.67;1.03;;;18.10;46.60;;;;;;5043711;28;20423;-84
2022/05/28 02:22:27;;;;;;;2.70;1.00;;;18.00;46.40;;;;;;5043514;28;20476;-84
2022/05/28 02:24:57;;;;;;;3.93;1.40;;;18.00;46.40;;;;;;5040612;28;20478;-82
2022/05/28 02:27:25;;;;;;;2.77;1.30;;;18.00;46.40;;;;;;5042511;28;20494;-84
2022/05/28 02:29:55;;;;;;;1.53;1.07;;;18.00;46.40;;;;;;5040331;28;20447;-84
2022/05/28 02:32:24;;;;;;;4.30;1.10;;;18.00;46.20;;;;;;5042640;28;20483;-85
2022/05/28 02:34:52;;;;;;;2.30;1.20;;;17.90;46.10;;;;;;5045623;28;20478;-82
2022/05/28 02:37:23;;;;;;;4.77;1.43;;;17.90;46.00;;;;;;5045795;28;20450;-83
2022/05/28 02:39:51;;;;;;;2.60;1.30;;;17.90;46.00;;;;;;5045456;28;20572;-83
2022/05/28 02:42:20;;;;;;;5.87;1.53;;;17.90;45.90;;;;;;5040770;28;20438;-84
2022/05/28 02:44:48;;;;;;;3.33;1.30;;;17.80;45.90;;;;;;5038230;28;20470;-82
2022/05/28 02:47:17;;;;;;;3.70;1.10;;;17.90;45.90;;;;;;5039405;28;20471;-83
2022/05/28 02:49:45;;;;;;;3.13;1.37;;;17.90;45.90;;;;;;5042584;28;20510;-84
2022/05/28 02:52:13;;;;;;;2.40;1.07;;;17.90;45.70;;;;;;5044103;28;20499;-82
2022/05/28 02:54:41;;;;;;;4.27;1.20;;;17.90;45.80;;;;;;5046304;28;20455;-83
2022/05/28 02:57:09;;;;;;;3.73;1.20;;;17.90;45.80;;;;;;5045625;28;20451;-83
2022/05/28 02:59:37;;;;;;;3.47;1.37;;;17.80;45.70;;;;;;5045359;28;20471;-83
2022/05/28 03:02:06;;;;;;;2.67;1.40;;;17.80;45.70;;;;;;5046286;28;20467;-83
2022/05/28 03:04:35;;;;;;;4.67;1.43;;;17.80;45.60;;;;;;5038512;28;20482;-83
2022/05/28 03:07:03;;;;;;;2.87;1.30;;;17.80;45.50;;;;;;5045508;28;20475;-82
2022/05/28 03:09:31;;;;;;;3.90;1.23;;;17.80;45.60;;;;;;5045180;28;20475;-83
2022/05/28 03:11:59;;;;;;;1.83;1.20;;;17.80;45.50;;;;;;5045408;28;20506;-83
2022/05/28 03:14:27;;;;;;;2.00;1.10;;;17.80;45.50;;;;;;5044888;28;20452;-83
2022/05/28 03:16:55;;;;;;;3.90;1.43;;;17.80;45.50;;;;;;5045747;28;20450;-83
2022/05/28 03:19:24;;;;;;;5.47;1.70;;;17.80;45.50;;;;;;5043944;28;20444;-82
2022/05/28 03:21:56;;;;;;;1.90;1.23;;;17.80;45.50;;;;;;5039734;28;20475;-82
2022/05/28 03:24:24;;;;;;;7.43;1.50;;;17.80;45.40;;;;;;5035876;28;20475;-83
2022/05/28 03:27:20;;;;;;;2.07;1.37;;;17.80;45.30;;;;;;5037826;28;20463;-83
2022/05/28 03:30:05;;;;;;;3.90;1.50;;;17.80;45.30;;;;;;5041230;28;20420;-82
2022/05/28 03:32:33;;;;;;;3.27;1.30;;;17.80;45.20;;;;;;5040233;28;20443;-83
2022/05/28 03:35:01;;;;;;;3.20;1.23;;;17.80;45.30;;;;;;5039690;28;20454;-82
2022/05/28 03:37:31;;;;;;;4.30;1.47;;;17.80;45.30;;;;;;5040633;28;20454;-84
2022/05/28 03:39:59;;;;;;;2.93;0.97;;;17.80;45.30;;;;;;5035454;28;20447;-83
2022/05/28 03:42:27;;;;;;;5.80;1.30;;;17.80;45.40;;;;;;5041286;28;20527;-83
2022/05/28 03:44:55;;;;;;;5.00;1.47;;;17.80;45.30;;;;;;5042967;28;20439;-84
2022/05/28 03:47:23;;;;;;;4.67;1.60;;;17.80;45.40;;;;;;5044346;28;20444;-83
2022/05/28 03:49:51;;;;;;;3.17;1.30;;;17.80;45.40;;;;;;5046003;28;20509;-84
2022/05/28 03:52:19;;;;;;;3.87;1.10;;;17.90;45.40;;;;;;5044895;28;20487;-83
2022/05/28 03:54:56;;;;;;;6.90;1.60;;;17.90;45.40;;;;;;5045301;28;20465;-83
2022/05/28 03:57:26;;;;;;;3.63;1.47;;;17.90;45.30;;;;;;5042322;28;20479;-82
2022/05/28 03:59:54;;;;;;;5.80;1.57;;;18.00;45.40;;;;;;5043709;28;20519;-83
2022/05/28 04:02:22;;;;;;;2.83;1.30;;;17.90;45.20;;;;;;5043275;28;20542;-83
2022/05/28 04:04:51;;;;;;;3.17;1.50;;;17.90;45.20;;;;;;5044201;28;20522;-82
2022/05/28 04:07:19;;;;;;;2.97;1.20;;;17.90;45.20;;;;;;5044669;28;20451;-84
2022/05/28 04:09:46;;;;;;;4.47;1.57;;;18.00;45.20;;;;;;5044797;28;20535;-83
2022/05/28 04:12:16;;;;;;;5.10;1.47;;;18.10;44.90;;;;;;5044453;28;20498;-82
2022/05/28 04:14:44;;;;;;;2.50;1.27;;;18.00;45.00;;;;;;5035534;28;20479;-83
2022/05/28 04:17:13;;;;;;;3.13;1.33;;;18.00;45.10;;;;;;5037214;28;20414;-83
2022/05/28 04:19:41;;;;;;;2.50;1.20;;;18.00;44.90;;;;;;5043882;28;20455;-82
2022/05/28 04:22:09;;;;;;;5.20;0.93;;;18.00;44.90;;;;;;5044853;28;20479;-83
2022/05/28 04:24:37;;;;;;;2.60;1.53;;;17.90;44.90;;;;;;5043180;28;20448;-83
2022/05/28 04:27:06;;;;;;;2.70;1.30;;;18.00;45.00;;;;;;5043035;28;20451;-83
2022/05/28 04:29:35;;;;;;;4.93;1.40;;;18.00;45.00;;;;;;5037544;28;20479;-80
2022/05/28 04:32:04;;;;;;;2.10;1.20;;;18.00;44.90;;;;;;5035952;28;20455;-84
2022/05/28 04:34:32;;;;;;;3.83;1.50;;;18.00;44.80;;;;;;5043380;28;20522;-83
2022/05/28 04:37:01;;;;;;;2.13;1.17;;;18.10;44.80;;;;;;5043876;28;20443;-83
2022/05/28 04:39:29;;;;;;;5.80;1.60;;;18.10;44.90;;;;;;5043227;28;20440;-83
2022/05/28 04:41:57;;;;;;;2.97;1.33;;;18.00;44.80;;;;;;5044473;28;20466;-84
2022/05/28 04:44:29;;;;;;;2.87;1.07;;;18.10;45.00;;;;;;5047711;28;20440;-83
2022/05/28 04:47:01;;;;;;;4.50;1.30;;;18.10;44.90;;;;;;5044685;28;20485;-83
2022/05/28 04:49:32;;;;;;;3.60;1.40;;;18.00;45.00;;;;;;5050921;28;20475;-83
2022/05/28 04:52:06;;;;;;;2.80;1.33;;;18.00;45.10;;;;;;5052921;28;20833;-83
2022/05/28 04:54:39;;;;;;;2.80;1.30;;;18.10;45.00;;;;;;5050197;28;20507;-83
2022/05/28 04:57:12;;;;;;;2.50;1.33;;;18.10;45.00;;;;;;5048889;28;20538;-82
2022/05/28 04:59:46;;;;;;;4.47;1.80;;;18.00;45.10;;;;;;5049653;28;20446;-83
2022/05/28 05:02:30;;;;;;;3.50;1.53;;;18.00;45.20;;;;;;5049043;28;20474;-82
2022/05/28 05:04:59;;;;;;;4.07;1.40;;;18.10;45.10;;;;;;5043125;28;20451;-85
2022/05/28 05:07:27;;;;;;;4.60;1.47;;;18.10;45.20;;;;;;5047915;28;20450;-83
2022/05/28 05:09:55;;;;;;;3.93;1.40;;;18.10;45.10;;;;;;5047214;28;20526;-83
2022/05/28 05:12:23;;;;;;;6.20;1.90;;;18.10;45.10;;;;;;5047256;28;20498;-84
2022/05/28 05:14:52;;;;;;;4.73;2.00;;;18.10;45.20;;;;;;5047831;28;20451;-84
2022/05/28 05:17:20;;;;;;;7.70;1.87;;;18.10;45.20;;;;;;5050196;28;20421;-83
2022/05/28 05:19:52;;;;;;;4.00;1.80;;;18.10;45.20;;;;;;5046828;28;20482;-83
2022/05/28 05:22:20;;;;;;;4.17;2.07;;;18.10;45.20;;;;;;5040660;28;20498;-82
2022/05/28 05:24:48;;;;;;;4.90;1.90;;;18.30;45.10;;;;;;5050223;28;20475;-83
2022/05/28 05:27:17;;;;;;;3.77;2.00;;;18.30;45.10;;;;;;5049914;28;20451;-83
2022/05/28 05:29:45;;;;;;;6.17;1.77;;;18.30;45.10;;;;;;5049832;28;20474;-83
2022/05/28 05:32:13;;;;;;;3.43;1.73;;;18.40;45.20;;;;;;5050866;28;20470;-83
2022/05/28 05:34:45;;;;;;;4.47;1.83;;;18.30;45.10;;;;;;5050164;28;20474;-84
2022/05/28 05:37:15;;;;;;;4.37;1.70;;;18.30;45.20;;;;;;5048666;28;20475;-84
2022/05/28 05:39:43;;;;;;;3.20;1.77;;;18.40;45.20;;;;;;5041464;28;20502;-82
2022/05/28 05:42:11;;;;;;;3.77;1.87;;;18.50;45.10;;;;;;5048909;28;20469;-82
2022/05/28 05:44:39;;;;;;;4.67;1.53;;;18.60;45.10;;;;;;5049458;28;20446;-83
2022/05/28 05:47:08;;;;;;;6.00;1.90;;;18.70;44.80;;;;;;5049831;28;20453;-84
2022/05/28 05:49:36;;;;;;;3.83;1.70;;;18.60;45.00;;;;;;5049178;28;20467;-83
2022/05/28 05:52:06;;;;;;;6.53;1.93;;;18.70;45.10;;;;;;5047463;28;20490;-83
2022/05/28 05:54:37;;;;;;;6.60;2.00;;;18.60;45.20;;;;;;5046781;28;20436;-83
2022/05/28 05:57:05;;;;;;;4.27;1.70;;;18.60;45.30;;;;;;5049000;28;20444;-82
2022/05/28 05:59:33;;;;;;;3.17;1.40;;;18.80;45.20;;;;;;5050434;28;20440;-84
2022/05/28 06:02:02;;;;;;;3.80;1.63;;;18.70;45.40;;;;;;5050346;28;20467;-83
2022/05/28 06:04:30;;;;;;;5.50;1.60;;;18.70;45.60;;;;;;5049865;28;20455;-84
2022/05/28 06:06:58;;;;;;;2.50;1.50;;;18.80;45.60;;;;;;5049511;28;20505;-83
2022/05/28 06:09:26;;;;;;;4.57;1.40;;;18.90;45.70;;;;;;5049050;28;20471;-83
2022/05/28 06:12:01;;;;;;;4.63;1.70;;;19.00;45.20;;;;;;5043803;28;20505;-84
2022/05/28 06:14:29;;;;;;;3.03;1.60;;;19.10;45.40;;;;;;5048122;28;20454;-83
2022/05/28 06:16:58;;;;;;;2.60;1.57;;;19.00;45.50;;;;;;5049031;28;20447;-83
2022/05/28 06:19:26;;;;;;;8.53;1.80;;;19.10;45.70;;;;;;5049024;28;20512;-83
2022/05/28 06:21:57;;;;;;;2.90;1.40;;;19.00;45.60;;;;;;5049469;28;20476;-83
2022/05/28 06:24:25;;;;;;;7.40;1.60;;;19.20;45.60;;;;;;5050372;28;20477;-83
2022/05/28 06:26:54;;;;;;;3.30;1.47;;;19.20;45.50;;;;;;5048561;28;20474;-83
2022/05/28 06:29:23;;;;;;;1.87;1.17;;;19.20;45.30;;;;;;5037151;28;20508;-83
2022/05/28 06:31:53;;;;;;;3.57;1.27;;;19.20;45.40;;;;;;5048221;28;20487;-83
2022/05/28 06:34:26;;;;;;;2.50;1.53;;;19.40;45.40;;;;;;5049777;28;20447;-83
2022/05/28 06:36:54;;;;;;;5.00;1.43;;;19.40;45.30;;;;;;5049695;28;20511;-83
2022/05/28 06:39:22;;;;;;;4.20;1.43;;;19.30;45.40;;;;;;5049361;28;20444;-82
2022/05/28 06:42:08;;;;;;;3.60;1.47;;;19.60;45.00;;;;;;5048953;28;20487;-83
2022/05/28 06:47:47;;;;;;;6.53;1.40;;;19.60;45.30;;;;;;5048564;28;20439;-83
2022/05/28 06:53:02;;;;;;;5.17;1.87;;;19.80;45.30;;;;;;5048192;28;20451;-84
2022/05/28 06:55:50;;;;;;;5.40;1.80;;;19.60;45.60;;;;;;5047662;28;20448;-82
2022/05/28 07:02:00;;;;;;;2.33;1.43;;;19.70;45.50;;;;;;5029373;28;20438;-81
2022/05/28 07:05:28;;;;;;;;;;;;;;;;;;;;;
2022/05/28 07:11:47;;;;;;;4.80;1.63;;;19.50;46.50;;;;;;5002547;28;20496;-83
2022/05/28 07:21:08;;;;;;;5.80;2.00;;;19.60;46.90;;;;;;4918296;29;20491;-82
2022/05/28 07:23:58;;;;;;;4.40;1.47;;;19.70;47.20;;;;;;4976611;28;20421;-82
2022/05/28 07:26:36;;;;;;;3.77;1.93;;;19.70;47.20;;;;;;4976648;28;20477;-83
2022/05/28 07:29:42;;;;;;;10.73;2.03;;;19.90;46.90;;;;;;4976283;28;20497;-83
2022/05/28 07:32:17;;;;;;;3.57;1.57;;;20.00;46.80;;;;;;4968194;28;20474;-83
2022/05/28 07:35:05;;;;;;;2.83;1.27;;;20.30;46.20;;;;;;5015139;28;20511;-83
2022/05/28 07:37:36;;;;;;;3.87;1.50;;;20.40;46.10;;;;;;5017635;28;20436;-83
2022/05/28 07:40:06;;;;;;;4.13;1.57;;;20.50;46.10;;;;;;5017117;28;20487;-81
2022/05/28 07:42:37;;;;;;;5.07;1.60;;;20.60;46.10;;;;;;5017531;28;20457;-83
2022/05/28 07:51:50;;;;;;;5.83;1.60;;;20.30;47.80;;;;;;5038133;28;20486;-81
2022/05/28 07:54:29;;;;;;;1.77;1.30;;;20.40;48.20;;;;;;5039358;28;20448;-82
2022/05/28 07:57:02;;;;;;;4.10;1.50;;;20.70;48.00;;;;;;5038796;28;20443;-82
2022/05/28 08:02:39;;;;;;;5.73;1.77;;;21.60;47.30;;;;;;5055826;23;20511;-82
2022/05/28 08:05:41;;;;;;;3.73;1.50;;;22.00;46.90;;;;;;5051218;28;20447;-82
2022/05/28 08:08:25;;;;;;;2.40;1.40;;;22.30;46.70;;;;;;5056832;28;20434;-82
2022/05/28 08:11:43;;;;;;;4.07;1.70;;;22.20;46.80;;;;;;5056665;28;20481;-81
2022/05/28 08:14:37;;;;;;;4.30;1.80;;;22.10;47.00;;;;;;5058030;28;20421;-82
2022/05/28 08:17:40;;;;;;;3.10;1.13;;;22.00;46.90;;;;;;5057600;28;20443;-82
2022/05/28 08:23:08;;;;;;;3.00;1.70;;;22.20;47.10;;;;;;5053349;28;20473;-82
2022/05/28 08:23:18;;;;;;;2.20;1.80;;;22.70;46.40;;;;;;5051494;28;20461;-82
2022/05/28 08:25:56;;;;;;;4.50;1.80;;;22.80;46.20;;;;;;5057025;28;20424;-82
2022/05/28 08:28:32;;;;;;;2.07;1.43;;;22.60;46.30;;;;;;5057292;28;20413;-82
2022/05/28 08:31:15;;;;;;;2.50;1.50;;;22.50;46.40;;;;;;5057050;28;20445;-82
2022/05/28 08:34:01;;;;;;;4.40;1.23;;;22.40;46.60;;;;;;5057197;28;20446;-83
2022/05/28 08:36:30;;;;;;;2.73;1.60;;;22.20;47.00;;;;;;5056715;28;20454;-83
2022/05/28 08:39:01;;;;;;;2.80;1.60;;;22.00;47.20;;;;;;5056783;28;20443;-82
2022/05/28 08:41:34;;;;;;;7.13;2.10;;;22.00;47.40;;;;;;5058533;28;20485;-80
2022/05/28 08:44:09;;;;;;;9.87;2.20;;;22.20;46.00;;;;;;5060044;28;20443;-82
2022/05/28 08:46:38;;;;;;;6.53;2.13;;;20.30;40.90;;;;;;5060093;28;20504;-82
2022/05/28 08:49:07;;;;;;;6.67;2.50;;;19.20;42.90;;;;;;5058248;28;20513;-81
2022/05/28 08:51:37;;;;;;;14.40;2.50;;;18.90;43.00;;;;;;5054215;28;20540;-83
2022/05/28 08:54:06;;;;;;;9.90;2.80;;;19.00;44.30;;;;;;5057439;28;20517;-83
2022/05/28 08:56:35;;;;;;;13.27;2.50;;;17.90;45.00;;;;;;5057481;28;20505;-82
2022/05/28 08:59:07;;;;;;;12.30;2.17;;;18.20;44.30;;;;;;5058431;28;20470;-82
2022/05/28 09:01:37;;;;;;;9.40;2.47;;;18.60;42.60;;;;;;5058577;28;20492;-82
2022/05/28 09:04:06;;;;;;;5.27;2.00;;;18.90;41.10;;;;;;5058567;28;20422;-82
2022/05/28 09:06:38;;;;;;;5.90;2.00;;;18.00;43.70;;;;;;5058121;28;20447;-83
2022/05/28 09:09:08;;;;;;;8.63;1.73;;;18.10;42.80;;;;;;5057338;28;20461;-80
2022/05/28 09:11:37;;;;;;;4.63;1.43;;;18.20;44.00;;;;;;5051471;28;20565;-82
2022/05/28 09:14:18;;;;;;;17.87;2.03;;;19.50;42.20;;;;;;5035684;28;20463;-82
2022/05/28 09:16:46;;;;;;;8.40;1.90;;;20.80;40.60;;;;;;5035048;28;20769;-82
2022/05/28 09:19:17;;;;;;;5.07;2.20;;;21.50;39.60;;;;;;5036026;28;20527;-82
2022/05/28 09:21:45;;;;;;;9.90;2.50;;;21.70;39.40;;;;;;5035575;28;20470;-82
2022/05/28 09:24:15;;;;;;;7.40;2.20;;;21.80;39.40;;;;;;5035609;28;20414;-83
2022/05/28 09:26:50;;;;;;;8.43;2.23;;;22.00;39.30;;;;;;5033954;28;20452;-82
2022/05/28 09:29:33;;;;;;;14.93;2.33;;;22.70;39.00;;;;;;5040931;28;20538;-81
2022/05/28 09:32:07;;;;;;;10.13;2.03;;;22.80;38.90;;;;;;5035631;28;20562;-83
2022/05/28 09:34:41;;;;;;;11.07;2.07;;;23.00;38.90;;;;;;5039617;28;20422;-83
2022/05/28 09:37:16;;;;;;;5.30;2.10;;;23.20;38.80;;;;;;5039213;28;20435;-82
2022/05/28 09:39:48;;;;;;;5.37;2.20;;;23.40;38.70;;;;;;5038500;28;20485;-83
2022/05/28 09:42:21;;;;;;;5.23;2.03;;;23.50;38.70;;;;;;5039246;28;20521;-82
2022/05/28 09:45:12;;;;;;;6.37;1.90;;;23.70;38.60;;;;;;5049589;28;20520;-83
2022/05/28 09:47:50;;;;;;;5.80;1.93;;;23.90;38.50;;;;;;5057284;28;20492;-82
2022/05/28 09:50:21;;;;;;;8.73;2.00;;;24.30;38.40;;;;;;5058829;28;20446;-82
2022/05/28 09:55:57;;;;;;;4.37;2.07;;;24.20;38.90;;;;;;5058732;28;20545;-82
2022/05/28 09:58:29;;;;;;;5.83;1.70;;;24.40;39.10;;;;;;5058484;28;20518;-81
2022/05/28 10:01:09;;;;;;;7.40;1.83;;;24.60;39.00;;;;;;5057545;28;20535;-82
2022/05/28 10:06:25;;;;;;;4.37;1.93;;;25.10;37.90;;;;;;5038286;28;20439;-81
2022/05/28 10:08:53;;;;;;;7.30;1.70;;;24.60;38.30;;;;;;5037983;28;20449;-82
2022/05/28 10:11:22;;;;;;;6.87;2.00;;;24.30;38.80;;;;;;5038218;28;20546;-83
2022/05/28 10:13:52;;;;;;;6.40;1.73;;;24.10;39.10;;;;;;5038898;28;20447;-82
2022/05/28 10:16:23;;;;;;;6.80;2.03;;;24.30;39.30;;;;;;5038347;28;20542;-82
2022/05/28 10:19:16;;;;;;;5.80;2.17;;;24.80;39.30;;;;;;5056747;28;20414;-82
2022/05/28 10:21:48;;;;;;;5.90;2.03;;;25.20;38.90;;;;;;5058080;28;20489;-82
2022/05/28 10:24:17;;;;;;;7.67;1.97;;;25.70;38.60;;;;;;5060024;28;20485;-84
2022/05/28 10:26:46;;;;;;;4.13;1.90;;;26.30;37.80;;;;;;5060783;28;20538;-81
2022/05/28 10:29:19;;;;;;;6.63;1.83;;;26.80;37.20;;;;;;5061252;28;20502;-83
2022/05/28 10:31:49;;;;;;;7.63;1.87;;;26.60;37.00;;;;;;5056842;28;20477;-84
2022/05/28 10:34:30;;;;;;;5.27;2.20;;;26.90;36.90;;;;;;5058672;28;20450;-83
2022/05/28 10:37:09;;;;;;;9.57;1.90;;;27.20;36.40;;;;;;5062024;28;20437;-83
2022/05/28 10:39:38;;;;;;;4.90;1.73;;;27.50;36.10;;;;;;5062804;28;20488;-83
2022/05/28 10:42:08;;;;;;;4.07;1.63;;;27.80;35.60;;;;;;5063104;28;20459;-84
2022/05/28 10:44:37;;;;;;;4.27;1.60;;;28.10;35.40;;;;;;5062152;28;20475;-84
2022/05/28 10:47:20;;;;;;;6.93;1.70;;;27.90;35.00;;;;;;5063189;28;20469;-84
2022/05/28 10:49:52;;;;;;;2.60;1.60;;;27.70;35.70;;;;;;5058605;28;20445;-84
2022/05/28 10:52:25;;;;;;;5.60;1.70;;;27.40;35.70;;;;;;5062904;28;20509;-83
2022/05/28 10:54:59;;;;;;;6.00;1.80;;;27.20;36.00;;;;;;5063606;28;20455;-84
2022/05/28 10:57:44;;;;;;;1.87;1.70;;;27.70;36.20;;;;;;5064571;28;20473;-83
2022/05/28 11:00:13;;;;;;;8.23;1.70;;;27.40;35.80;;;;;;5065419;28;20526;-85
2022/05/28 11:03:05;;;;;;;4.73;1.93;;;27.70;36.00;;;;;;5067049;28;20513;-83
2022/05/28 11:05:42;;;;;;;4.10;1.87;;;28.30;35.50;;;;;;5062049;28;20440;-84
2022/05/28 11:08:13;;;;;;;5.17;1.47;;;28.10;35.10;;;;;;5062411;28;20453;-83
2022/05/28 11:10:55;;;;;;;8.30;2.30;;;27.70;35.30;;;;;;5059523;28;20448;-84
2022/05/28 11:17:18;;;;;;;12.47;1.70;;;26.50;37.10;;;;;;5057864;28;20464;-84
2022/05/28 11:19:57;;;;;;;7.77;2.03;;;26.10;38.30;;;;;;5060782;28;20497;-85
2022/05/28 11:22:34;;;;;;;5.93;1.63;;;28.30;36.90;;;;;;5061249;28;20432;-85
2022/05/28 11:25:08;;;;;;;4.73;1.80;;;33.30;29.70;;;;;;5060470;28;20461;-82
2022/05/28 11:27:42;;;;;;;15.23;2.10;;;33.30;29.30;;;;;;5047325;28;20442;-85
2022/05/28 11:30:14;;;;;;;8.17;1.53;;;31.30;30.90;;;;;;5052557;28;20518;-81
2022/05/28 11:32:43;;;;;;;10.50;1.83;;;31.20;31.50;;;;;;5057479;28;20530;-83
2022/05/28 11:35:18;;;;;;;7.90;1.67;;;30.00;32.70;;;;;;5056389;28;20505;-82
2022/05/28 11:37:49;;;;;;;6.13;1.77;;;29.00;34.40;;;;;;5060366;28;20472;-83
2022/05/28 11:40:21;;;;;;;12.30;1.60;;;29.10;35.40;;;;;;5056992;28;20458;-83
2022/05/28 11:42:51;;;;;;;5.53;1.67;;;29.40;33.90;;;;;;5057619;28;20470;-82
2022/05/28 11:45:21;;;;;;;4.77;1.73;;;31.60;31.50;;;;;;5063855;28;20480;-84
2022/05/28 11:47:53;;;;;;;3.17;1.30;;;33.20;29.80;;;;;;5063290;28;20439;-83
2022/05/28 11:53:20;;;;;;;4.97;1.23;;;39.90;23.70;;;;;;5063916;28;20470;-83
2022/05/28 11:55:51;;;;;;;1.33;1.20;;;40.90;22.70;;;;;;5062392;28;20446;-83
2022/05/28 11:58:20;;;;;;;1.27;1.17;;;41.30;21.80;;;;;;5064181;28;20458;-81
2022/05/28 12:00:51;;;;;;;4.67;1.27;;;40.50;22.20;;;;;;5066701;28;20477;-82
2022/05/28 12:03:20;;;;;;;3.23;1.50;;;36.60;24.20;;;;;;5063643;28;20474;-82
2022/05/28 12:05:51;;;;;;;2.67;1.40;;;31.50;27.90;;;;;;5063053;28;20479;-82
2022/05/28 12:08:23;;;;;;;7.50;1.90;;;29.70;31.30;;;;;;5063874;28;20450;-83
2022/05/28 12:10:52;;;;;;;5.03;2.53;;;28.70;33.10;;;;;;5065172;28;20489;-81
2022/05/28 12:13:32;;;;;;;11.30;2.30;;;27.90;34.70;;;;;;5064393;28;20494;-83
2022/05/28 12:16:11;;;;;;;4.10;1.50;;;29.00;34.80;;;;;;5062376;28;20465;-82
2022/05/28 12:18:41;;;;;;;3.70;1.70;;;30.70;31.90;;;;;;5063688;28;20450;-84
2022/05/28 12:21:11;;;;;;;6.33;2.07;;;29.70;31.70;;;;;;5069037;28;20467;-84
2022/05/28 12:23:40;;;;;;;4.67;1.77;;;28.60;33.20;;;;;;5068885;28;20462;-84
2022/05/28 12:26:45;;;;;;;5.77;2.00;;;27.50;34.50;;;;;;5063762;28;20481;-83
2022/05/28 12:29:09;;;;;;;4.20;1.80;;;27.10;35.40;;;;;;5060927;28;20465;-80
2022/05/28 12:31:37;;;;;;;10.37;1.40;;;28.00;35.20;;;;;;5041918;28;20465;-81
2022/05/28 12:34:05;;;;;;;2.73;2.10;;;28.30;34.20;;;;;;5037396;28;20515;-83
2022/05/28 12:36:39;;;;;;;2.93;1.43;;;28.20;34.20;;;;;;5043391;28;20445;-83
2022/05/28 12:39:21;;;;;;;4.30;1.77;;;27.60;33.90;;;;;;5042515;28;20522;-82
2022/05/28 12:41:55;;;;;;;4.63;1.70;;;27.20;35.40;;;;;;5035748;28;20491;-79
2022/05/28 12:44:24;;;;;;;3.60;1.83;;;26.80;35.40;;;;;;5037212;28;20460;-81
2022/05/28 12:46:54;;;;;;;5.73;2.17;;;26.50;36.50;;;;;;5038707;28;20429;-82
2022/05/28 12:49:27;;;;;;;8.40;2.10;;;26.20;36.50;;;;;;5045847;28;20462;-79
2022/05/28 12:52:23;;;;;;;4.30;1.83;;;26.10;37.40;;;;;;5060114;28;20438;-81
2022/05/28 12:55:00;;;;;;;5.20;1.80;;;25.80;38.10;;;;;;5063667;28;20433;-81
2022/05/28 12:57:33;;;;;;;15.77;2.70;;;25.80;38.40;;;;;;5058593;28;20534;-80
2022/05/28 13:00:04;;;;;;;13.80;2.70;;;25.70;37.30;;;;;;5057406;28;21091;-81
2022/05/28 13:02:33;;;;;;;10.43;2.20;;;25.30;37.70;;;;;;5057596;28;20640;-82
2022/05/28 13:28:40;;;;;;;14.40;3.90;;;25.40;39.30;;;;;;5115173;27;20618;-83
2022/05/28 13:31:10;;;;;;;10.70;3.10;;;29.10;34.40;;;;;;5111241;28;20475;-85
2022/05/28 13:33:39;;;;;;;11.57;2.67;;;28.40;33.10;;;;;;5111487;28;20436;-90
2022/05/28 13:36:08;;;;;;;11.03;3.20;;;27.60;34.60;;;;;;5112049;28;20521;-83
2022/05/28 13:38:40;;;;;;;7.87;2.97;;;27.40;35.10;;;;;;5112266;28;20520;-85
2022/05/28 13:41:10;;;;;;;10.17;2.40;;;27.80;34.80;;;;;;5094768;28;20457;-88
2022/05/28 13:43:40;;;;;;;6.90;2.87;;;27.80;34.20;;;;;;5093800;28;20510;-81
2022/05/28 13:46:11;;;;;;;11.20;2.90;;;27.80;35.00;;;;;;5095764;28;20437;-86
2022/05/28 13:48:41;;;;;;;11.23;3.00;;;26.60;35.90;;;;;;5096275;28;20452;-86
2022/05/28 13:51:10;;;;;;;6.00;2.77;;;27.00;37.10;;;;;;5097478;28;20502;-85
2022/05/28 13:57:19;;;;;;;6.27;2.73;;;27.90;36.40;;;;;;5115655;28;20517;-85
2022/05/28 13:59:49;;;;;;;7.80;2.90;;;28.30;35.70;;;;;;5117030;28;20440;-85
2022/05/28 14:02:20;;;;;;;11.30;2.37;;;28.60;35.30;;;;;;5103784;28;20502;-83
2022/05/28 14:04:49;;;;;;;7.43;3.10;;;28.70;35.50;;;;;;5106365;28;20440;-84
2022/05/28 14:07:25;;;;;;;8.50;2.90;;;28.90;35.30;;;;;;5118199;28;20432;-82
2022/05/28 14:09:53;;;;;;;7.67;2.93;;;28.80;34.80;;;;;;5116214;28;20444;-82
2022/05/28 14:12:23;;;;;;;8.17;2.87;;;28.70;35.00;;;;;;5115364;28;20496;-82
2022/05/28 14:14:51;;;;;;;10.30;3.20;;;28.60;35.30;;;;;;5116861;28;20448;-83
2022/05/28 14:17:23;;;;;;;11.13;2.77;;;28.60;35.30;;;;;;5120153;28;20456;-81
2022/05/28 14:19:52;;;;;;;9.37;2.50;;;28.60;35.40;;;;;;5113520;28;20423;-83
2022/05/28 14:22:22;;;;;;;6.60;2.50;;;28.80;35.20;;;;;;5119210;28;20464;-83
2022/05/28 14:24:55;;;;;;;7.87;2.43;;;28.80;34.70;;;;;;5112763;28;20444;-82